createdAt,value
2022-10-22T16:59:59.731Z,78.19
2022-10-22T17:03:03.555Z,75.34
2022-10-22T17:06:08.056Z,74.52
2022-10-22T17:09:12.034Z,74.85
2022-10-22T17:12:16.140Z,75.68
2022-10-22T17:15:21.224Z,76.69
2022-10-22T17:18:25.323Z,77.63
2022-10-22T17:21:28.935Z,78.16
2022-10-22T17:24:32.963Z,79.09
2022-10-22T17:27:36.875Z,79.80
2022-10-22T17:30:42.020Z,80.10
2022-10-22T17:33:46.442Z,80.74
2022-10-22T17:36:50.167Z,81.17
2022-10-22T17:39:53.866Z,81.57
2022-10-22T17:42:57.792Z,81.93
2022-10-22T17:46:11.887Z,82.41
2022-10-22T17:49:18.236Z,82.50
2022-10-22T17:52:21.875Z,82.17
2022-10-22T17:55:25.540Z,82.64
2022-10-22T17:58:30.779Z,82.35
2022-10-22T18:01:40.244Z,82.22
2022-10-22T18:04:43.876Z,82.07
2022-10-22T18:07:47.484Z,81.55
2022-10-22T18:10:51.126Z,81.75
2022-10-22T18:13:56.617Z,81.00
2022-10-22T18:17:03.032Z,81.43
2022-10-22T18:20:07.860Z,81.25
2022-10-22T18:23:13.545Z,81.38
2022-10-22T18:26:20.342Z,80.93
2022-10-22T18:29:26.705Z,80.86
2022-10-22T18:32:33.984Z,80.93
2022-10-22T18:35:37.603Z,81.03
2022-10-22T18:38:41.461Z,80.66
2022-10-22T18:41:45.083Z,79.78
2022-10-22T18:44:48.680Z,79.10
2022-10-22T18:47:54.700Z,79.18
2022-10-22T18:51:03.175Z,79.24
2022-10-22T18:54:22.200Z,78.81
2022-10-22T18:57:28.103Z,78.67
2022-10-22T19:00:31.768Z,78.83
2022-10-22T19:03:36.923Z,78.64
2022-10-22T19:06:45.101Z,78.78
2022-10-22T19:09:49.392Z,78.89
2022-10-22T19:12:52.988Z,78.53
2022-10-22T19:16:03.070Z,79.04
2022-10-22T19:19:09.042Z,79.32
2022-10-22T19:22:12.920Z,78.88
2022-10-22T19:25:16.700Z,78.88
2022-10-22T19:28:20.355Z,79.23
2022-10-22T19:31:26.052Z,78.91
2022-10-22T19:34:31.166Z,79.05
2022-10-22T19:37:37.070Z,77.84
2022-10-22T19:40:42.180Z,78.28
2022-10-22T19:43:49.385Z,78.80
2022-10-22T19:46:53.335Z,78.46
2022-10-22T19:49:58.511Z,78.31
2022-10-22T19:53:02.143Z,78.54
2022-10-22T19:56:07.869Z,78.70
2022-10-22T19:59:12.525Z,78.50
2022-10-22T20:02:17.775Z,77.89
2022-10-22T20:08:32.152Z,77.19
2022-10-22T20:11:35.776Z,77.15
2022-10-22T20:14:40.764Z,77.36
2022-10-22T20:17:44.741Z,77.70
2022-10-22T20:20:50.236Z,77.84
2022-10-22T20:23:56.634Z,78.16
2022-10-22T20:27:05.571Z,78.01
2022-10-22T20:30:10.757Z,78.04
2022-10-22T20:33:14.928Z,78.04
2022-10-22T20:36:22.036Z,78.25
2022-10-22T20:39:25.721Z,78.38
2022-10-22T20:42:29.386Z,78.01
2022-10-22T20:45:33.238Z,78.08
2022-10-22T20:48:39.216Z,79.09
2022-10-22T20:51:44.711Z,78.85
2022-10-22T20:54:48.569Z,78.96
2022-10-22T20:57:52.337Z,78.80
2022-10-22T21:00:56.475Z,79.23
2022-10-22T21:04:00.118Z,79.02
2022-10-22T21:07:05.211Z,79.25
2022-10-22T21:10:09.701Z,79.54
2022-10-22T21:13:13.696Z,79.65
2022-10-22T21:16:19.906Z,79.61
2022-10-22T21:19:24.216Z,79.78
2022-10-22T21:22:29.283Z,79.28
2022-10-22T21:25:32.926Z,79.83
2022-10-22T21:28:37.922Z,79.86
2022-10-22T21:31:41.659Z,79.98
2022-10-22T21:34:45.230Z,78.80
2022-10-22T21:37:50.254Z,79.09
2022-10-22T21:40:53.963Z,79.84
2022-10-22T21:43:57.669Z,79.98
2022-10-22T21:47:01.267Z,80.41
2022-10-22T21:50:05.165Z,79.85
2022-10-22T21:53:10.631Z,80.33
2022-10-22T21:56:16.204Z,80.85
2022-10-22T21:59:20.221Z,80.58
2022-10-22T22:02:23.959Z,80.60
2022-10-22T22:05:27.830Z,80.63
2022-10-22T22:08:33.497Z,80.25
2022-10-22T22:11:37.122Z,80.09
2022-10-22T22:14:41.275Z,81.31
2022-10-22T22:17:45.021Z,80.76
2022-10-22T22:20:48.683Z,81.29
2022-10-22T22:23:53.688Z,80.47
2022-10-22T22:26:57.388Z,80.93
2022-10-22T22:30:01.052Z,80.36
2022-10-22T22:33:05.076Z,81.02
2022-10-22T22:36:09.816Z,80.63
2022-10-22T22:39:17.064Z,81.07
2022-10-22T22:42:20.725Z,80.35
2022-10-22T22:45:24.387Z,80.76
2022-10-22T22:48:28.360Z,80.12
2022-10-22T22:51:32.107Z,80.02
2022-10-22T22:54:37.111Z,80.04
2022-10-22T22:57:40.670Z,79.93
2022-10-22T23:00:44.394Z,79.96
2022-10-22T23:03:53.266Z,80.79
2022-10-22T23:06:57.010Z,80.04
2022-10-22T23:10:01.988Z,79.73
2022-10-22T23:13:05.645Z,80.11
2022-10-22T23:16:13.328Z,79.66
2022-10-22T23:19:19.648Z,80.20
2022-10-22T23:22:23.278Z,80.28
2022-10-22T23:25:28.728Z,80.31
2022-10-22T23:28:32.494Z,80.34
2022-10-22T23:31:36.219Z,79.96
2022-10-22T23:34:39.927Z,79.93
2022-10-22T23:37:43.753Z,79.77
2022-10-22T23:40:55.213Z,80.38
